Time;durP1;ratioP1;P1;durP2;ratioP2;P2;SDS_P1;SDS_P2;PMS_P1;PMS_P2;Temp;Humidity;BMP_temperature;BMP_pressure;BME280_temperature;BME280_humidity;BME280_pressure;Samples;Min_cycle;Max_cycle;Signal;HPM_P1;HPM_P2
2023/12/09 00:01:25;;;;;;;11.15;3.72;;;7.20;99.90;;;;;;5022395;28;20037;-79
2023/12/09 00:03:50;;;;;;;10.27;2.95;;;7.20;99.90;;;;;;5003409;28;20079;-80
2023/12/09 00:06:17;;;;;;;9.35;3.97;;;7.20;99.90;;;;;;5026262;28;20072;-80
2023/12/09 00:08:43;;;;;;;6.90;3.30;;;7.30;99.90;;;;;;5024285;28;20498;-79
2023/12/09 00:11:09;;;;;;;11.02;3.10;;;7.20;99.90;;;;;;5001845;28;20041;-79
2023/12/09 00:13:34;;;;;;;8.45;2.67;;;7.20;99.90;;;;;;5026833;28;20128;-80
2023/12/09 00:16:00;;;;;;;7.28;3.20;;;7.30;99.90;;;;;;5005310;28;20038;-80
2023/12/09 00:18:26;;;;;;;5.70;2.85;;;7.30;99.90;;;;;;5021320;28;20046;-79
2023/12/09 00:20:51;;;;;;;8.65;2.45;;;7.30;99.90;;;;;;5024826;28;20419;-80
2023/12/09 00:23:17;;;;;;;5.65;2.65;;;7.30;99.90;;;;;;5017262;28;20065;-80
2023/12/09 00:25:43;;;;;;;9.75;3.47;;;7.30;99.90;;;;;;5024711;28;20041;-80
2023/12/09 00:28:08;;;;;;;5.93;2.67;;;7.30;99.90;;;;;;5005940;28;20037;-79
2023/12/09 00:30:34;;;;;;;6.45;3.53;;;7.30;99.90;;;;;;5021936;28;20591;-79
2023/12/09 00:33:00;;;;;;;7.88;3.72;;;7.30;99.90;;;;;;5028242;28;20040;-79
2023/12/09 00:35:26;;;;;;;13.82;3.58;;;7.30;99.90;;;;;;5012631;28;20041;-80
2023/12/09 00:37:53;;;;;;;13.80;3.45;;;7.30;99.90;;;;;;5023855;28;20052;-80
2023/12/09 00:40:19;;;;;;;7.28;3.28;;;7.30;99.90;;;;;;5023467;28;20938;-80
2023/12/09 00:42:46;;;;;;;15.07;3.25;;;7.30;99.90;;;;;;5006406;28;20033;-79
2023/12/09 00:45:13;;;;;;;6.85;3.10;;;7.40;99.90;;;;;;5020104;28;20049;-79
2023/12/09 00:47:39;;;;;;;6.88;2.22;;;7.40;99.90;;;;;;5005872;28;20040;-79
2023/12/09 00:50:05;;;;;;;10.30;3.22;;;7.40;99.90;;;;;;5006912;28;20045;-79
2023/12/09 00:52:31;;;;;;;7.97;2.92;;;7.40;99.90;;;;;;5004419;28;20120;-79
2023/12/09 00:54:57;;;;;;;6.05;2.95;;;7.30;99.90;;;;;;5022802;28;20117;-80
2023/12/09 00:57:24;;;;;;;5.28;3.17;;;7.30;99.90;;;;;;5020315;28;20045;-79
2023/12/09 00:59:50;;;;;;;8.63;3.45;;;7.30;99.90;;;;;;5024034;28;20050;-80
2023/12/09 01:02:16;;;;;;;8.30;2.38;;;7.40;99.90;;;;;;5021186;28;20171;-79
2023/12/09 01:04:41;;;;;;;8.63;3.40;;;7.40;99.90;;;;;;5004669;28;20033;-80
2023/12/09 01:07:07;;;;;;;8.88;3.55;;;7.40;99.90;;;;;;5008000;28;20049;-80
2023/12/09 01:09:33;;;;;;;6.90;2.63;;;7.40;99.90;;;;;;5001819;28;20369;-80
2023/12/09 01:11:58;;;;;;;11.18;2.90;;;7.40;99.90;;;;;;5023244;28;20507;-80
2023/12/09 01:14:24;;;;;;;8.85;2.83;;;7.40;99.90;;;;;;5019196;28;20095;-79
2023/12/09 01:16:50;;;;;;;5.30;2.30;;;7.40;99.90;;;;;;5022576;28;20040;-80
2023/12/09 01:19:15;;;;;;;10.45;3.35;;;7.40;99.90;;;;;;5022594;28;20514;-80
2023/12/09 01:21:41;;;;;;;6.75;2.53;;;7.40;99.90;;;;;;5000893;28;20041;-80
2023/12/09 01:24:07;;;;;;;10.10;3.55;;;7.40;99.90;;;;;;5035609;28;20037;-79
2023/12/09 01:26:32;;;;;;;6.93;2.72;;;7.40;99.90;;;;;;5003932;28;20537;-80
2023/12/09 01:29:00;;;;;;;4.50;2.28;;;7.40;99.90;;;;;;5002704;28;20076;-80
2023/12/09 01:31:26;;;;;;;4.70;2.45;;;7.40;99.90;;;;;;5007991;28;20072;-79
2023/12/09 01:33:51;;;;;;;12.82;3.85;;;7.40;99.90;;;;;;5008428;28;20071;-80
2023/12/09 01:36:17;;;;;;;5.85;2.65;;;7.40;99.90;;;;;;5008509;28;20037;-79
2023/12/09 01:38:42;;;;;;;9.38;3.50;;;7.50;99.90;;;;;;5017553;28;20048;-79
2023/12/09 01:41:08;;;;;;;8.07;3.20;;;7.50;99.90;;;;;;5022797;28;20030;-80
2023/12/09 01:43:34;;;;;;;12.80;2.50;;;7.50;99.90;;;;;;5021740;28;20625;-79
2023/12/09 01:46:20;;;;;;;11.00;3.60;;;7.50;99.90;;;;;;5019251;28;20399;-80
2023/12/09 01:48:47;;;;;;;11.15;3.75;;;7.40;99.90;;;;;;5014480;28;20545;-79
2023/12/09 01:51:16;;;;;;;8.00;2.38;;;7.50;99.90;;;;;;5005124;28;20081;-79
2023/12/09 01:53:42;;;;;;;7.65;2.88;;;7.60;99.90;;;;;;5021937;28;20041;-79
2023/12/09 01:56:12;;;;;;;9.13;3.72;;;7.50;99.90;;;;;;5005469;28;20132;-79
2023/12/09 01:58:39;;;;;;;9.25;4.28;;;7.50;99.90;;;;;;5004343;28;20045;-79
2023/12/09 02:01:05;;;;;;;10.23;3.53;;;7.50;99.90;;;;;;5022390;28;20048;-79
2023/12/09 02:03:31;;;;;;;5.38;2.45;;;7.50;99.90;;;;;;5021531;28;20033;-79
2023/12/09 02:05:57;;;;;;;7.13;2.50;;;7.50;99.90;;;;;;5023109;28;20033;-80
2023/12/09 02:08:23;;;;;;;11.95;3.22;;;7.50;99.90;;;;;;5006073;28;20067;-79
2023/12/09 02:10:59;;;;;;;10.20;2.83;;;7.50;99.90;;;;;;5022780;28;20029;-79
2023/12/09 02:13:38;;;;;;;7.32;3.20;;;7.50;99.90;;;;;;5002364;28;20041;-79
2023/12/09 02:16:06;;;;;;;7.30;2.17;;;7.50;99.90;;;;;;5006202;28;20446;-79
2023/12/09 02:18:34;;;;;;;7.90;3.63;;;7.50;99.90;;;;;;5001619;28;20065;-79
2023/12/09 02:21:00;;;;;;;5.45;2.35;;;7.50;99.90;;;;;;5000742;28;20037;-79
2023/12/09 02:23:26;;;;;;;6.90;2.65;;;7.50;99.90;;;;;;5019832;28;20088;-79
2023/12/09 02:25:57;;;;;;;8.23;4.00;;;7.50;99.90;;;;;;5004852;28;20395;-79
2023/12/09 02:28:32;;;;;;;9.30;3.72;;;7.50;99.90;;;;;;5021326;28;20051;-79
2023/12/09 02:31:15;;;;;;;6.83;2.77;;;7.60;99.90;;;;;;5006323;28;20065;-79
2023/12/09 02:33:43;;;;;;;8.65;2.80;;;7.60;99.90;;;;;;5006345;28;20326;-79
2023/12/09 02:36:12;;;;;;;7.00;2.47;;;7.60;99.90;;;;;;5028491;28;20041;-79
2023/12/09 02:38:39;;;;;;;4.53;2.00;;;7.60;99.90;;;;;;5021953;28;20122;-79
2023/12/09 02:41:09;;;;;;;6.72;2.90;;;7.60;99.90;;;;;;5010266;28;20053;-79
2023/12/09 02:43:36;;;;;;;7.55;2.95;;;7.60;99.90;;;;;;5023542;28;20041;-79
2023/12/09 02:46:01;;;;;;;5.60;2.47;;;7.60;99.90;;;;;;5003759;28;20048;-79
2023/12/09 02:48:27;;;;;;;9.07;3.47;;;7.60;99.90;;;;;;5005317;28;20503;-79
2023/12/09 02:50:53;;;;;;;6.78;2.38;;;7.60;99.90;;;;;;5025557;28;20164;-79
2023/12/09 02:53:18;;;;;;;10.02;2.67;;;7.60;99.90;;;;;;5007478;28;20122;-79
2023/12/09 02:55:44;;;;;;;7.93;2.58;;;7.60;99.90;;;;;;5005340;28;20497;-79
2023/12/09 02:58:09;;;;;;;5.57;2.65;;;7.60;99.90;;;;;;5026811;28;20048;-79
2023/12/09 03:00:35;;;;;;;9.68;4.22;;;7.60;99.90;;;;;;5025178;28;20092;-79
2023/12/09 03:03:01;;;;;;;6.88;2.58;;;7.60;99.90;;;;;;5025979;28;20041;-80
2023/12/09 03:05:26;;;;;;;3.90;1.95;;;7.60;99.90;;;;;;5010288;28;20060;-80
2023/12/09 03:07:52;;;;;;;5.03;2.22;;;7.60;99.90;;;;;;5024771;28;20034;-80
2023/12/09 03:10:18;;;;;;;9.63;2.63;;;7.50;99.90;;;;;;5009122;28;20083;-79
2023/12/09 03:12:43;;;;;;;6.45;2.85;;;7.60;99.90;;;;;;5007499;28;20072;-79
2023/12/09 03:15:09;;;;;;;6.32;2.53;;;7.70;99.90;;;;;;5009222;28;20111;-80
2023/12/09 03:17:36;;;;;;;8.30;2.38;;;7.60;99.90;;;;;;5003497;28;20144;-79
2023/12/09 03:20:03;;;;;;;6.88;2.30;;;7.60;99.90;;;;;;5006201;28;20065;-79
2023/12/09 03:22:29;;;;;;;6.82;3.22;;;7.60;99.90;;;;;;5022775;28;20124;-79
2023/12/09 03:24:55;;;;;;;7.68;2.13;;;7.60;99.90;;;;;;5021357;28;20042;-80
2023/12/09 03:27:20;;;;;;;6.72;3.65;;;7.60;99.90;;;;;;5023603;28;20036;-80
2023/12/09 03:29:46;;;;;;;6.22;2.72;;;7.60;99.90;;;;;;5024330;28;20091;-79
2023/12/09 03:32:12;;;;;;;7.35;2.47;;;7.60;99.90;;;;;;5023826;28;20029;-79
2023/12/09 03:34:37;;;;;;;8.45;2.83;;;7.60;99.90;;;;;;5024219;28;20040;-79
2023/12/09 03:37:03;;;;;;;6.20;2.05;;;7.60;99.90;;;;;;5024905;28;20037;-80
2023/12/09 03:39:29;;;;;;;5.70;3.22;;;7.60;99.90;;;;;;5008294;28;20035;-79
2023/12/09 03:41:55;;;;;;;5.30;2.30;;;7.60;99.90;;;;;;5022883;28;20049;-80
2023/12/09 03:44:20;;;;;;;10.63;3.22;;;7.60;99.90;;;;;;5023760;28;20124;-80
2023/12/09 03:46:46;;;;;;;5.28;2.20;;;7.60;99.90;;;;;;5023873;28;20048;-80
2023/12/09 03:49:12;;;;;;;9.00;2.85;;;7.60;99.90;;;;;;5021540;28;20248;-80
2023/12/09 03:51:37;;;;;;;4.40;2.15;;;7.60;99.90;;;;;;5007239;28;20053;-80
2023/12/09 03:54:03;;;;;;;8.45;2.83;;;7.60;99.90;;;;;;5007865;28;20064;-80
2023/12/09 03:56:29;;;;;;;5.97;2.47;;;7.60;99.90;;;;;;5008721;28;20041;-80
2023/12/09 03:58:55;;;;;;;13.80;4.32;;;7.60;99.90;;;;;;5023147;28;20048;-80
2023/12/09 04:01:24;;;;;;;8.57;3.53;;;7.60;99.90;;;;;;5024426;28;20057;-80
2023/12/09 04:03:50;;;;;;;8.35;2.53;;;7.60;99.90;;;;;;5025101;28;20038;-80
2023/12/09 04:06:16;;;;;;;5.22;1.90;;;7.60;99.90;;;;;;5020406;28;20044;-79
2023/12/09 04:08:41;;;;;;;6.65;2.67;;;7.60;99.90;;;;;;5024331;28;20029;-80
2023/12/09 04:11:07;;;;;;;6.30;2.55;;;7.60;99.90;;;;;;5022657;28;20095;-80
2023/12/09 04:13:32;;;;;;;9.23;2.03;;;7.60;99.90;;;;;;5003098;28;20103;-80
2023/12/09 04:15:59;;;;;;;8.07;2.45;;;7.60;99.90;;;;;;5000019;28;20060;-80
2023/12/09 04:18:25;;;;;;;8.35;2.72;;;7.60;99.90;;;;;;5005657;28;20041;-80
2023/12/09 04:20:50;;;;;;;3.83;1.80;;;7.60;99.90;;;;;;5022172;28;20108;-80
2023/12/09 04:23:16;;;;;;;5.20;2.55;;;7.60;99.90;;;;;;4999804;28;20038;-79
2023/12/09 04:25:42;;;;;;;9.73;2.10;;;7.70;99.90;;;;;;5006344;28;20034;-80
2023/12/09 04:28:07;;;;;;;5.53;2.15;;;7.60;99.90;;;;;;5020169;28;20057;-79
2023/12/09 04:30:33;;;;;;;7.80;2.40;;;7.60;99.90;;;;;;5023283;28;20049;-80
2023/12/09 04:32:59;;;;;;;8.07;3.08;;;7.60;99.90;;;;;;5003967;28;20103;-80
2023/12/09 04:35:25;;;;;;;4.78;1.55;;;7.60;99.90;;;;;;5007317;28;20128;-79
2023/12/09 04:37:50;;;;;;;6.43;1.92;;;7.60;99.90;;;;;;5003109;28;20037;-80
2023/12/09 04:40:17;;;;;;;6.00;2.42;;;7.60;99.90;;;;;;5023629;28;20041;-80
2023/12/09 04:42:42;;;;;;;4.82;1.73;;;7.60;99.90;;;;;;5004404;28;20274;-80
2023/12/09 04:45:08;;;;;;;5.88;2.72;;;7.60;99.90;;;;;;5020535;28;20037;-79
2023/12/09 04:47:34;;;;;;;3.78;1.65;;;7.60;99.90;;;;;;5004452;28;20065;-80
2023/12/09 04:50:00;;;;;;;5.80;2.13;;;7.60;99.90;;;;;;5004439;28;20068;-79
2023/12/09 04:52:25;;;;;;;10.63;2.63;;;7.60;99.90;;;;;;5025600;28;20431;-79
2023/12/09 04:54:52;;;;;;;3.25;1.75;;;7.60;99.90;;;;;;5011614;28;20099;-80
2023/12/09 04:57:18;;;;;;;6.88;2.08;;;7.60;99.90;;;;;;5018345;28;20049;-79
2023/12/09 04:59:44;;;;;;;4.90;2.10;;;7.60;99.90;;;;;;5048537;28;20040;-80
2023/12/09 05:02:10;;;;;;;9.13;1.88;;;7.70;99.90;;;;;;5041343;28;20128;-79
2023/12/09 05:04:36;;;;;;;6.68;2.58;;;7.60;99.90;;;;;;5028343;28;20036;-80
2023/12/09 05:07:03;;;;;;;8.43;2.00;;;7.60;99.90;;;;;;5022835;28;20094;-79
2023/12/09 05:09:28;;;;;;;7.38;1.95;;;7.60;99.90;;;;;;5023661;28;20048;-80
2023/12/09 05:11:54;;;;;;;5.63;2.22;;;7.60;99.90;;;;;;5004738;28;20041;-79
2023/12/09 05:14:19;;;;;;;3.25;2.38;;;7.60;99.90;;;;;;5018910;28;20576;-79
2023/12/09 05:16:45;;;;;;;4.13;1.98;;;7.60;99.90;;;;;;5006007;28;20479;-79
2023/12/09 05:19:11;;;;;;;6.28;2.08;;;7.60;99.90;;;;;;5003090;28;20045;-80
2023/12/09 05:21:36;;;;;;;3.17;1.58;;;7.60;99.90;;;;;;5021395;28;20046;-79
2023/12/09 05:24:04;;;;;;;6.35;1.83;;;7.60;99.90;;;;;;5022808;28;20076;-79
2023/12/09 05:26:29;;;;;;;5.10;2.17;;;7.60;99.90;;;;;;5022075;28;20509;-79
2023/12/09 05:28:55;;;;;;;10.40;2.08;;;7.60;99.90;;;;;;5007577;28;20094;-80
2023/12/09 05:31:24;;;;;;;3.58;2.15;;;7.60;99.90;;;;;;5002053;28;20083;-80
2023/12/09 05:33:50;;;;;;;3.83;1.77;;;7.60;99.90;;;;;;5002947;28;20061;-80
2023/12/09 05:36:16;;;;;;;5.60;1.85;;;7.60;99.90;;;;;;5001248;28;20670;-79
2023/12/09 05:38:42;;;;;;;4.35;1.88;;;7.60;99.90;;;;;;5022490;28;20051;-79
2023/12/09 05:41:09;;;;;;;4.00;1.65;;;7.60;99.90;;;;;;5004671;28;20506;-80
2023/12/09 05:43:39;;;;;;;7.70;2.13;;;7.60;99.90;;;;;;5023235;28;20029;-79
2023/12/09 05:46:05;;;;;;;6.90;2.28;;;7.60;99.90;;;;;;5021285;28;20033;-79
2023/12/09 05:48:34;;;;;;;3.75;1.85;;;7.60;99.90;;;;;;5021224;28;20112;-79
2023/12/09 05:51:00;;;;;;;8.20;2.22;;;7.60;99.90;;;;;;5022206;28;20034;-79
2023/12/09 05:53:26;;;;;;;7.90;1.98;;;7.60;99.90;;;;;;4999032;28;20069;-79
2023/12/09 05:55:52;;;;;;;6.03;2.15;;;7.60;99.90;;;;;;5004849;28;20072;-79
2023/12/09 05:58:18;;;;;;;9.25;3.17;;;7.60;99.90;;;;;;5001703;28;20041;-79
2023/12/09 06:00:43;;;;;;;5.70;2.25;;;7.60;99.90;;;;;;5021787;28;20376;-79
2023/12/09 06:03:09;;;;;;;4.28;2.00;;;7.60;99.90;;;;;;5001423;28;20046;-79
2023/12/09 06:05:35;;;;;;;16.10;2.60;;;7.60;99.90;;;;;;5023066;28;20025;-79
2023/12/09 06:08:01;;;;;;;6.18;2.10;;;7.60;99.90;;;;;;5005428;28;20041;-79
2023/12/09 06:10:26;;;;;;;9.65;2.08;;;7.60;99.90;;;;;;5023563;28;20038;-80
2023/12/09 06:12:52;;;;;;;9.95;1.95;;;7.50;99.90;;;;;;5025266;28;20045;-79
2023/12/09 06:15:18;;;;;;;4.22;1.90;;;7.50;99.90;;;;;;5026680;28;20092;-79
2023/12/09 06:17:43;;;;;;;7.07;2.17;;;7.60;99.90;;;;;;5006940;28;20269;-80
2023/12/09 06:20:09;;;;;;;5.03;2.35;;;7.60;99.90;;;;;;5027490;28;20040;-79
2023/12/09 06:22:35;;;;;;;6.25;2.20;;;7.60;99.90;;;;;;5024138;28;22164;-80
2023/12/09 06:25:01;;;;;;;9.98;2.72;;;7.60;99.90;;;;;;5007382;28;20091;-79
2023/12/09 06:27:26;;;;;;;4.57;1.83;;;7.50;99.90;;;;;;5014589;28;20064;-80
2023/12/09 06:29:52;;;;;;;6.13;1.65;;;7.50;99.90;;;;;;5030466;28;20491;-79
2023/12/09 06:32:18;;;;;;;5.43;1.70;;;7.50;99.90;;;;;;5007326;28;20034;-79
2023/12/09 06:34:44;;;;;;;6.75;2.50;;;7.50;99.90;;;;;;5006402;28;20049;-79
2023/12/09 06:37:09;;;;;;;6.30;2.28;;;7.50;99.90;;;;;;5000610;28;20033;-79
2023/12/09 06:39:35;;;;;;;5.95;2.30;;;7.50;99.90;;;;;;5003681;28;20088;-79
2023/12/09 06:42:01;;;;;;;3.75;1.48;;;7.50;99.90;;;;;;5007227;28;20025;-79
2023/12/09 06:44:26;;;;;;;1.88;1.10;;;7.50;99.90;;;;;;5007992;28;20261;-79
2023/12/09 06:46:53;;;;;;;3.97;1.83;;;7.50;99.90;;;;;;5024776;28;20068;-79
2023/12/09 06:49:18;;;;;;;5.43;1.88;;;7.40;99.90;;;;;;5023259;28;20503;-80
2023/12/09 06:51:45;;;;;;;5.70;2.17;;;7.50;99.90;;;;;;5022478;28;20486;-79
2023/12/09 06:54:11;;;;;;;4.13;1.27;;;7.40;99.90;;;;;;5005599;28;20100;-79
2023/12/09 06:56:37;;;;;;;8.52;1.77;;;7.40;99.90;;;;;;5008995;28;20043;-79
2023/12/09 06:59:03;;;;;;;5.50;2.45;;;7.40;99.90;;;;;;5025274;28;20048;-80
2023/12/09 07:01:29;;;;;;;3.13;1.77;;;7.40;99.90;;;;;;5010325;28;20079;-80
2023/12/09 07:03:55;;;;;;;4.75;1.85;;;7.40;99.90;;;;;;5024761;28;20061;-80
2023/12/09 07:06:23;;;;;;;4.32;1.60;;;7.40;99.90;;;;;;5010583;28;20037;-79
2023/12/09 07:08:49;;;;;;;4.22;2.08;;;7.40;99.90;;;;;;5023133;28;20128;-80
2023/12/09 07:11:16;;;;;;;3.25;1.73;;;7.40;99.90;;;;;;5021232;28;20756;-80
2023/12/09 07:13:42;;;;;;;6.50;2.00;;;7.40;99.90;;;;;;5022087;28;20396;-80
2023/12/09 07:16:09;;;;;;;2.67;1.20;;;7.40;99.90;;;;;;5025972;28;20065;-80
2023/12/09 07:18:35;;;;;;;5.85;1.45;;;7.40;99.90;;;;;;5024866;28;20091;-79
2023/12/09 07:21:02;;;;;;;3.85;2.20;;;7.40;99.90;;;;;;5024534;28;20038;-80
2023/12/09 07:23:27;;;;;;;8.38;1.90;;;7.40;99.90;;;;;;5006438;28;20163;-79
2023/12/09 07:25:55;;;;;;;5.13;1.85;;;7.40;99.90;;;;;;5023179;28;20124;-79
2023/12/09 07:28:20;;;;;;;3.60;1.42;;;7.40;99.90;;;;;;5004015;28;20040;-79
2023/12/09 07:30:46;;;;;;;3.80;1.52;;;7.40;99.90;;;;;;5025182;28;20191;-79
2023/12/09 07:33:12;;;;;;;2.90;1.58;;;7.40;99.90;;;;;;5021626;28;20088;-79
2023/12/09 07:35:39;;;;;;;7.63;1.45;;;7.30;99.90;;;;;;5023640;28;20038;-80
2023/12/09 07:38:06;;;;;;;6.30;1.83;;;7.40;99.90;;;;;;5002305;28;20494;-79
2023/12/09 07:40:32;;;;;;;4.95;2.55;;;7.40;99.90;;;;;;5008004;28;20045;-80
2023/12/09 07:42:57;;;;;;;3.33;1.42;;;7.40;99.90;;;;;;5011918;28;20111;-80
2023/12/09 07:45:23;;;;;;;13.13;3.00;;;7.40;99.90;;;;;;5025730;28;20041;-80
2023/12/09 07:47:49;;;;;;;4.00;1.65;;;7.40;99.90;;;;;;5024879;28;20345;-79
2023/12/09 07:50:14;;;;;;;2.25;1.33;;;7.40;99.90;;;;;;5005574;28;20510;-80
2023/12/09 07:52:40;;;;;;;4.38;1.42;;;7.40;99.90;;;;;;5006022;28;20044;-80
2023/12/09 07:55:07;;;;;;;5.63;1.30;;;7.40;99.90;;;;;;5007886;28;20627;-80
2023/12/09 07:57:34;;;;;;;3.65;1.40;;;7.40;99.90;;;;;;4997165;28;20033;-79
2023/12/09 08:00:00;;;;;;;2.65;1.42;;;7.40;99.90;;;;;;5026951;28;20049;-80
2023/12/09 08:02:25;;;;;;;7.13;1.42;;;7.40;99.90;;;;;;5020570;28;20041;-79
2023/12/09 08:04:51;;;;;;;5.85;1.60;;;7.40;99.90;;;;;;5022068;28;20046;-80
2023/12/09 08:07:17;;;;;;;5.25;1.92;;;7.40;99.90;;;;;;5003499;28;20172;-80
2023/12/09 08:09:42;;;;;;;3.13;1.38;;;7.40;99.90;;;;;;5006324;28;20072;-79
2023/12/09 08:12:08;;;;;;;10.98;2.22;;;7.40;99.90;;;;;;5003921;28;20129;-80
2023/12/09 08:14:34;;;;;;;6.20;1.38;;;7.40;99.90;;;;;;5004422;28;20040;-80
2023/12/09 08:17:00;;;;;;;3.85;1.27;;;7.40;99.90;;;;;;5004610;28;21301;-79
2023/12/09 08:19:25;;;;;;;0.95;0.70;;;7.40;99.90;;;;;;5008959;28;20095;-80
2023/12/09 08:21:51;;;;;;;1.90;0.93;;;7.30;99.90;;;;;;5009182;28;20102;-79
2023/12/09 08:24:17;;;;;;;6.47;1.80;;;7.40;99.90;;;;;;5003770;28;20057;-79
2023/12/09 08:26:42;;;;;;;2.97;0.77;;;7.40;99.90;;;;;;5020168;28;20034;-79
2023/12/09 08:29:11;;;;;;;3.08;0.85;;;7.30;99.90;;;;;;5007056;28;20083;-79
2023/12/09 08:31:37;;;;;;;8.32;1.42;;;7.30;99.90;;;;;;5006257;28;20264;-79
2023/12/09 08:34:04;;;;;;;7.60;1.00;;;7.20;99.90;;;;;;5020499;28;20053;-80
2023/12/09 08:36:30;;;;;;;2.70;1.13;;;7.20;99.90;;;;;;5015044;28;20047;-79
2023/12/09 08:38:56;;;;;;;3.58;1.20;;;7.20;99.90;;;;;;5018856;28;20037;-79
2023/12/09 08:41:21;;;;;;;1.98;0.65;;;7.20;99.90;;;;;;5022299;28;20038;-80
2023/12/09 08:43:51;;;;;;;6.32;0.88;;;7.20;99.90;;;;;;5019431;28;20120;-80
2023/12/09 08:46:16;;;;;;;6.93;1.77;;;7.20;99.90;;;;;;5033895;28;20041;-79
2023/12/09 08:48:42;;;;;;;7.35;1.20;;;7.20;99.90;;;;;;5003617;28;20666;-79
2023/12/09 08:51:08;;;;;;;3.75;0.63;;;7.20;99.90;;;;;;5016436;28;20046;-80
2023/12/09 08:53:34;;;;;;;0.85;0.45;;;7.20;99.90;;;;;;5001230;28;20053;-80
2023/12/09 08:56:00;;;;;;;3.05;1.08;;;7.20;99.90;;;;;;5019280;28;20064;-79
2023/12/09 08:58:25;;;;;;;1.90;1.00;;;7.20;99.90;;;;;;5017609;28;20392;-80
2023/12/09 09:00:51;;;;;;;2.35;0.80;;;7.20;99.90;;;;;;5011117;28;20044;-80
2023/12/09 09:03:16;;;;;;;6.95;0.85;;;7.20;99.90;;;;;;5025949;28;20038;-80
2023/12/09 09:05:42;;;;;;;3.38;0.85;;;7.20;99.90;;;;;;5028176;28;20045;-80
2023/12/09 09:08:08;;;;;;;1.05;0.57;;;7.10;99.90;;;;;;5011060;28;20500;-79
2023/12/09 09:10:34;;;;;;;3.55;1.17;;;7.20;99.90;;;;;;5028856;28;20029;-79
2023/12/09 09:12:59;;;;;;;0.88;0.50;;;7.20;99.90;;;;;;5026598;28;20415;-79
2023/12/09 09:15:25;;;;;;;2.13;0.80;;;7.10;99.90;;;;;;5008305;28;20046;-79
2023/12/09 09:17:51;;;;;;;2.20;0.93;;;7.20;99.90;;;;;;4992125;28;20068;-79
2023/12/09 09:20:16;;;;;;;6.90;0.95;;;7.20;99.90;;;;;;5008599;28;20041;-80
2023/12/09 09:22:42;;;;;;;4.68;0.82;;;7.30;99.90;;;;;;4991311;28;20413;-79
2023/12/09 09:25:09;;;;;;;1.10;0.55;;;7.30;99.90;;;;;;5024777;28;20041;-80
2023/12/09 09:27:35;;;;;;;3.20;0.80;;;7.20;99.90;;;;;;5011552;28;20040;-79
2023/12/09 09:30:00;;;;;;;1.63;0.60;;;7.30;99.90;;;;;;5028215;28;20606;-80
2023/12/09 09:32:27;;;;;;;1.40;0.73;;;7.30;99.90;;;;;;5012464;28;20045;-79
2023/12/09 09:34:52;;;;;;;1.92;1.13;;;7.30;99.90;;;;;;5017913;28;20466;-80
2023/12/09 09:37:18;;;;;;;1.13;0.50;;;7.30;99.90;;;;;;5002918;28;20113;-80
2023/12/09 09:39:44;;;;;;;1.48;0.60;;;7.30;99.90;;;;;;5021690;28;20038;-80
2023/12/09 09:42:42;;;;;;;6.60;0.55;;;7.40;99.90;;;;;;5010705;28;20052;-80
2023/12/09 09:45:22;;;;;;;6.55;0.80;;;7.40;99.90;;;;;;5015068;28;20637;-79
2023/12/09 09:47:49;;;;;;;1.20;0.40;;;7.40;99.90;;;;;;5028088;28;20360;-79
2023/12/09 09:50:25;;;;;;;3.63;0.60;;;7.40;99.90;;;;;;5001856;28;20072;-80
2023/12/09 09:52:53;;;;;;;2.50;1.05;;;7.40;99.90;;;;;;5024524;28;20053;-80
2023/12/09 09:55:21;;;;;;;4.68;0.82;;;7.40;99.90;;;;;;5011248;28;20064;-80
2023/12/09 09:57:50;;;;;;;1.25;0.43;;;7.40;99.90;;;;;;5016334;28;20106;-80
2023/12/09 10:00:19;;;;;;;1.25;0.82;;;7.40;99.90;;;;;;5034070;28;20041;-80
2023/12/09 10:02:50;;;;;;;1.42;0.50;;;7.40;99.90;;;;;;5024587;28;20487;-80
2023/12/09 10:05:17;;;;;;;2.58;0.35;;;7.40;99.90;;;;;;5025290;28;20041;-80
2023/12/09 10:07:44;;;;;;;3.05;0.60;;;7.40;99.90;;;;;;5022654;28;20108;-80
2023/12/09 10:10:14;;;;;;;1.58;0.85;;;7.40;99.90;;;;;;5008042;28;20030;-80
2023/12/09 10:12:40;;;;;;;0.85;0.43;;;7.40;99.90;;;;;;5006652;28;20079;-79
2023/12/09 10:15:06;;;;;;;1.95;0.28;;;7.40;99.90;;;;;;5001648;28;20444;-82
2023/12/09 10:17:33;;;;;;;2.10;0.60;;;7.50;99.90;;;;;;5006209;28;20040;-82
2023/12/09 10:20:00;;;;;;;7.78;1.20;;;7.50;99.90;;;;;;5007834;28;20176;-81
2023/12/09 10:22:29;;;;;;;1.90;0.60;;;7.50;99.90;;;;;;5003515;28;20084;-80
2023/12/09 10:24:55;;;;;;;1.90;0.40;;;7.50;99.90;;;;;;5023702;28;20099;-80
2023/12/09 10:27:25;;;;;;;3.35;1.15;;;7.50;99.90;;;;;;5025081;28;20407;-80
2023/12/09 10:29:58;;;;;;;1.27;0.52;;;7.50;99.90;;;;;;5008310;28;20034;-80
2023/12/09 10:32:26;;;;;;;1.02;0.50;;;7.60;99.90;;;;;;5005601;28;20096;-79
2023/12/09 10:34:52;;;;;;;2.78;0.70;;;7.60;99.90;;;;;;5021879;28;20072;-80
2023/12/09 10:37:18;;;;;;;0.57;0.43;;;7.60;99.90;;;;;;5006829;28;20041;-82
2023/12/09 10:39:48;;;;;;;6.03;1.52;;;7.60;99.90;;;;;;5005920;28;20033;-82
2023/12/09 10:42:14;;;;;;;2.10;0.73;;;7.60;99.90;;;;;;5002258;28;20096;-78
2023/12/09 10:44:42;;;;;;;3.45;0.90;;;7.60;99.90;;;;;;5020332;28;20075;-80
2023/12/09 10:47:08;;;;;;;4.90;0.82;;;7.60;99.90;;;;;;5021737;28;20037;-80
2023/12/09 10:49:34;;;;;;;2.15;1.05;;;7.60;99.90;;;;;;5005235;28;20033;-79
2023/12/09 10:52:00;;;;;;;0.90;0.50;;;7.70;99.90;;;;;;5002369;28;20040;-79
2023/12/09 10:54:25;;;;;;;2.35;0.52;;;7.60;99.90;;;;;;5006345;28;20037;-79
2023/12/09 10:56:51;;;;;;;4.03;0.85;;;7.70;99.90;;;;;;5008408;28;20079;-79
2023/12/09 10:59:18;;;;;;;1.88;0.47;;;7.70;99.90;;;;;;5008009;28;20422;-79
2023/12/09 11:01:46;;;;;;;0.82;0.50;;;7.70;99.90;;;;;;5009075;28;20796;-79
2023/12/09 11:04:13;;;;;;;1.35;0.82;;;7.70;99.90;;;;;;5024154;28;20436;-79
2023/12/09 11:06:40;;;;;;;2.13;0.85;;;7.70;99.90;;;;;;5009022;28;20135;-79
2023/12/09 11:09:07;;;;;;;0.50;0.40;;;7.70;99.90;;;;;;5029308;28;20042;-79
2023/12/09 11:11:37;;;;;;;2.30;0.82;;;7.70;99.90;;;;;;5027259;28;20343;-79
2023/12/09 11:14:07;;;;;;;1.00;0.60;;;7.80;99.90;;;;;;5003985;28;20045;-79
2023/12/09 11:16:33;;;;;;;1.38;0.55;;;7.80;99.90;;;;;;5019446;28;20044;-80
2023/12/09 11:18:59;;;;;;;3.75;1.33;;;7.80;99.90;;;;;;5014256;28;20091;-80
2023/12/09 11:21:31;;;;;;;1.75;0.77;;;7.80;99.90;;;;;;5003549;28;20044;-80
2023/12/09 11:23:58;;;;;;;1.80;0.40;;;7.80;99.90;;;;;;5005735;28;20415;-80
2023/12/09 11:26:33;;;;;;;2.28;0.68;;;7.80;99.90;;;;;;5030633;28;20128;-80
2023/12/09 11:29:09;;;;;;;3.10;0.50;;;7.80;99.90;;;;;;5027218;28;20029;-79
2023/12/09 11:31:49;;;;;;;1.23;0.50;;;7.80;99.90;;;;;;5024027;28;20103;-80
2023/12/09 11:34:17;;;;;;;3.40;0.57;;;7.90;99.90;;;;;;5029736;28;20295;-82
2023/12/09 11:36:44;;;;;;;1.92;0.73;;;7.90;99.90;;;;;;5022161;28;20091;-80
2023/12/09 11:39:19;;;;;;;1.58;0.43;;;7.90;99.90;;;;;;5028898;28;20053;-80
2023/12/09 11:41:46;;;;;;;1.50;0.47;;;7.90;99.90;;;;;;5009629;28;20126;-80
2023/12/09 11:44:14;;;;;;;2.92;0.52;;;7.90;99.90;;;;;;5022363;28;20043;-80
2023/12/09 11:46:40;;;;;;;7.53;0.55;;;7.90;99.90;;;;;;5026368;28;20041;-80
2023/12/09 11:49:07;;;;;;;2.13;0.50;;;7.90;99.90;;;;;;5028069;28;20515;-87
2023/12/09 11:51:36;;;;;;;1.80;0.57;;;8.00;99.90;;;;;;5020005;28;20492;-80
2023/12/09 11:54:04;;;;;;;0.28;0.22;;;8.00;99.90;;;;;;5005070;28;20037;-81
2023/12/09 11:56:30;;;;;;;1.83;0.98;;;8.00;99.90;;;;;;5029984;28;20099;-82
2023/12/09 11:58:56;;;;;;;1.48;0.77;;;8.00;99.90;;;;;;5024171;28;20044;-79
2023/12/09 12:01:23;;;;;;;1.52;0.60;;;8.00;99.90;;;;;;5011630;28;20042;-79
2023/12/09 12:03:49;;;;;;;2.40;0.52;;;8.00;99.90;;;;;;5027248;28;20037;-80
2023/12/09 12:06:17;;;;;;;0.93;0.50;;;8.00;99.90;;;;;;5027416;28;20037;-79
2023/12/09 12:08:45;;;;;;;1.20;0.50;;;7.90;99.90;;;;;;5028691;28;20115;-79
2023/12/09 12:11:11;;;;;;;1.50;0.50;;;8.00;99.90;;;;;;5028929;28;20055;-79
2023/12/09 12:13:37;;;;;;;1.80;0.57;;;8.00;99.90;;;;;;5013374;28;20038;-79
2023/12/09 12:16:03;;;;;;;1.13;0.75;;;8.00;99.90;;;;;;5023655;28;20116;-80
2023/12/09 12:18:29;;;;;;;1.33;0.22;;;7.90;99.90;;;;;;5028762;28;20123;-79
2023/12/09 12:20:56;;;;;;;1.40;0.68;;;7.90;99.90;;;;;;5025179;28;20049;-81
2023/12/09 12:23:22;;;;;;;3.75;0.43;;;8.00;99.90;;;;;;5010363;28;20033;-80
2023/12/09 12:25:56;;;;;;;3.33;0.70;;;8.00;99.90;;;;;;5010050;28;20045;-80
2023/12/09 12:28:23;;;;;;;1.50;0.28;;;8.00;99.90;;;;;;5009791;28;20064;-80
2023/12/09 12:30:53;;;;;;;2.92;0.98;;;8.00;99.90;;;;;;5027621;28;20044;-80
2023/12/09 12:33:23;;;;;;;4.43;0.95;;;8.00;99.90;;;;;;5023564;28;20056;-80
2023/12/09 12:35:51;;;;;;;1.85;0.50;;;8.00;99.90;;;;;;5011549;28;20399;-80
2023/12/09 12:38:17;;;;;;;2.20;0.55;;;8.00;99.90;;;;;;5020047;28;20053;-80
2023/12/09 12:40:43;;;;;;;1.30;0.50;;;8.10;99.90;;;;;;5028581;28;20055;-80
2023/12/09 12:43:09;;;;;;;1.75;0.38;;;8.10;99.90;;;;;;5008039;28;20068;-80
2023/12/09 12:45:36;;;;;;;0.93;0.43;;;8.00;99.90;;;;;;5010112;28;20123;-80
2023/12/09 12:48:02;;;;;;;3.30;0.70;;;8.00;99.90;;;;;;5008717;28;20614;-80
2023/12/09 12:50:27;;;;;;;0.35;0.30;;;8.10;99.90;;;;;;5010726;28;20116;-80
2023/12/09 12:52:53;;;;;;;3.33;0.60;;;8.10;99.90;;;;;;5006708;28;20048;-80